sensor_id;sensor_type;location;lat;lon;timestamp;P1;durP1;ratioP1;P2;durP2;ratioP2
81648;SDS011;71057;51.436;6.768;2024-03-06T00:01:41;24.17;;;15.07;;
81648;SDS011;71057;51.436;6.768;2024-03-06T00:04:07;25.23;;;16.37;;
81648;SDS011;71057;51.436;6.768;2024-03-06T00:06:32;26.77;;;14.40;;
81648;SDS011;71057;51.436;6.768;2024-03-06T00:08:58;30.73;;;17.05;;
81648;SDS011;71057;51.436;6.768;2024-03-06T00:11:23;25.10;;;15.50;;
81648;SDS011;71057;51.436;6.768;2024-03-06T00:13:48;23.95;;;15.30;;
81648;SDS011;71057;51.436;6.768;2024-03-06T00:16:14;22.20;;;14.53;;
81648;SDS011;71057;51.436;6.768;2024-03-06T00:18:39;30.80;;;16.42;;
81648;SDS011;71057;51.436;6.768;2024-03-06T00:21:05;26.60;;;14.88;;
81648;SDS011;71057;51.436;6.768;2024-03-06T00:23:31;33.83;;;17.75;;
81648;SDS011;71057;51.436;6.768;2024-03-06T00:25:57;28.77;;;16.50;;
81648;SDS011;71057;51.436;6.768;2024-03-06T00:28:22;29.60;;;18.25;;
81648;SDS011;71057;51.436;6.768;2024-03-06T00:30:47;25.97;;;15.20;;
81648;SDS011;71057;51.436;6.768;2024-03-06T00:33:13;26.27;;;16.17;;
81648;SDS011;71057;51.436;6.768;2024-03-06T00:35:38;29.58;;;17.85;;
81648;SDS011;71057;51.436;6.768;2024-03-06T00:38:03;24.52;;;14.02;;
81648;SDS011;71057;51.436;6.768;2024-03-06T00:40:29;26.40;;;16.63;;
81648;SDS011;71057;51.436;6.768;2024-03-06T00:42:57;25.75;;;15.50;;
81648;SDS011;71057;51.436;6.768;2024-03-06T00:45:22;26.08;;;15.50;;
81648;SDS011;71057;51.436;6.768;2024-03-06T00:47:48;24.48;;;15.40;;
81648;SDS011;71057;51.436;6.768;2024-03-06T00:50:13;23.43;;;14.20;;
81648;SDS011;71057;51.436;6.768;2024-03-06T00:52:41;23.98;;;15.82;;
81648;SDS011;71057;51.436;6.768;2024-03-06T00:55:07;27.50;;;16.05;;
81648;SDS011;71057;51.436;6.768;2024-03-06T00:57:33;22.48;;;14.70;;
81648;SDS011;71057;51.436;6.768;2024-03-06T01:00:01;25.77;;;15.77;;
81648;SDS011;71057;51.436;6.768;2024-03-06T01:02:26;24.08;;;15.35;;
81648;SDS011;71057;51.436;6.768;2024-03-06T01:04:52;23.20;;;14.30;;
81648;SDS011;71057;51.436;6.768;2024-03-06T01:07:17;22.63;;;13.90;;
81648;SDS011;71057;51.436;6.768;2024-03-06T01:09:43;24.58;;;14.50;;
81648;SDS011;71057;51.436;6.768;2024-03-06T01:12:08;24.83;;;14.93;;
81648;SDS011;71057;51.436;6.768;2024-03-06T01:14:34;27.77;;;16.20;;
81648;SDS011;71057;51.436;6.768;2024-03-06T01:16:59;23.80;;;14.70;;
81648;SDS011;71057;51.436;6.768;2024-03-06T01:19:24;25.90;;;14.97;;
81648;SDS011;71057;51.436;6.768;2024-03-06T01:21:49;27.20;;;15.40;;
81648;SDS011;71057;51.436;6.768;2024-03-06T01:24:15;26.93;;;16.90;;
81648;SDS011;71057;51.436;6.768;2024-03-06T01:26:40;24.73;;;14.30;;
81648;SDS011;71057;51.436;6.768;2024-03-06T01:29:06;30.40;;;18.23;;
81648;SDS011;71057;51.436;6.768;2024-03-06T01:31:31;28.15;;;16.63;;
81648;SDS011;71057;51.436;6.768;2024-03-06T01:33:56;27.63;;;17.57;;
81648;SDS011;71057;51.436;6.768;2024-03-06T01:36:22;30.80;;;16.40;;
81648;SDS011;71057;51.436;6.768;2024-03-06T01:38:47;38.92;;;17.70;;
81648;SDS011;71057;51.436;6.768;2024-03-06T01:41:12;33.08;;;19.25;;
81648;SDS011;71057;51.436;6.768;2024-03-06T01:43:38;29.15;;;18.27;;
81648;SDS011;71057;51.436;6.768;2024-03-06T01:46:04;31.45;;;17.75;;
81648;SDS011;71057;51.436;6.768;2024-03-06T01:48:30;28.33;;;18.08;;
81648;SDS011;71057;51.436;6.768;2024-03-06T01:50:56;34.72;;;17.95;;
81648;SDS011;71057;51.436;6.768;2024-03-06T01:53:25;27.05;;;16.90;;
81648;SDS011;71057;51.436;6.768;2024-03-06T01:55:53;33.30;;;17.55;;
81648;SDS011;71057;51.436;6.768;2024-03-06T01:58:19;30.08;;;17.50;;
81648;SDS011;71057;51.436;6.768;2024-03-06T02:00:46;29.42;;;17.23;;
81648;SDS011;71057;51.436;6.768;2024-03-06T02:03:12;29.25;;;16.67;;
81648;SDS011;71057;51.436;6.768;2024-03-06T02:05:38;34.92;;;18.60;;
81648;SDS011;71057;51.436;6.768;2024-03-06T02:08:04;31.85;;;16.75;;
81648;SDS011;71057;51.436;6.768;2024-03-06T02:10:30;32.88;;;18.45;;
81648;SDS011;71057;51.436;6.768;2024-03-06T02:12:56;30.40;;;17.92;;
81648;SDS011;71057;51.436;6.768;2024-03-06T02:15:21;28.45;;;17.08;;
81648;SDS011;71057;51.436;6.768;2024-03-06T02:17:47;35.47;;;18.27;;
81648;SDS011;71057;51.436;6.768;2024-03-06T02:20:12;29.97;;;16.80;;
81648;SDS011;71057;51.436;6.768;2024-03-06T02:22:39;31.52;;;15.98;;
81648;SDS011;71057;51.436;6.768;2024-03-06T02:25:05;31.60;;;16.27;;
81648;SDS011;71057;51.436;6.768;2024-03-06T02:27:32;30.70;;;15.90;;
81648;SDS011;71057;51.436;6.768;2024-03-06T02:29:57;31.00;;;17.58;;
81648;SDS011;71057;51.436;6.768;2024-03-06T02:32:23;27.65;;;17.23;;
81648;SDS011;71057;51.436;6.768;2024-03-06T02:34:49;28.38;;;16.35;;
81648;SDS011;71057;51.436;6.768;2024-03-06T02:37:15;28.02;;;15.80;;
81648;SDS011;71057;51.436;6.768;2024-03-06T02:39:41;29.52;;;17.40;;
81648;SDS011;71057;51.436;6.768;2024-03-06T02:42:06;27.45;;;16.20;;
81648;SDS011;71057;51.436;6.768;2024-03-06T02:44:32;30.95;;;16.67;;
81648;SDS011;71057;51.436;6.768;2024-03-06T02:46:58;29.02;;;16.58;;
81648;SDS011;71057;51.436;6.768;2024-03-06T02:49:23;25.70;;;14.27;;
81648;SDS011;71057;51.436;6.768;2024-03-06T02:51:49;33.47;;;18.23;;
81648;SDS011;71057;51.436;6.768;2024-03-06T02:54:14;31.00;;;16.20;;
81648;SDS011;71057;51.436;6.768;2024-03-06T02:56:39;31.53;;;16.83;;
81648;SDS011;71057;51.436;6.768;2024-03-06T02:59:05;31.50;;;17.05;;
81648;SDS011;71057;51.436;6.768;2024-03-06T03:01:30;28.43;;;16.73;;
81648;SDS011;71057;51.436;6.768;2024-03-06T03:03:56;27.27;;;17.15;;
81648;SDS011;71057;51.436;6.768;2024-03-06T03:06:22;31.05;;;16.95;;
81648;SDS011;71057;51.436;6.768;2024-03-06T03:08:49;27.33;;;15.02;;
81648;SDS011;71057;51.436;6.768;2024-03-06T03:11:14;27.38;;;15.77;;
81648;SDS011;71057;51.436;6.768;2024-03-06T03:13:40;30.42;;;15.68;;
81648;SDS011;71057;51.436;6.768;2024-03-06T03:16:06;32.90;;;18.23;;
81648;SDS011;71057;51.436;6.768;2024-03-06T03:18:32;27.83;;;15.80;;
81648;SDS011;71057;51.436;6.768;2024-03-06T03:20:57;32.17;;;16.58;;
81648;SDS011;71057;51.436;6.768;2024-03-06T03:23:22;28.40;;;17.13;;
81648;SDS011;71057;51.436;6.768;2024-03-06T03:25:48;33.45;;;17.70;;
81648;SDS011;71057;51.436;6.768;2024-03-06T03:28:16;34.83;;;18.55;;
81648;SDS011;71057;51.436;6.768;2024-03-06T03:30:44;28.40;;;17.40;;
81648;SDS011;71057;51.436;6.768;2024-03-06T03:33:10;28.48;;;15.93;;
81648;SDS011;71057;51.436;6.768;2024-03-06T03:35:36;30.45;;;16.20;;
81648;SDS011;71057;51.436;6.768;2024-03-06T03:38:01;25.83;;;14.33;;
81648;SDS011;71057;51.436;6.768;2024-03-06T03:40:26;29.13;;;15.63;;
81648;SDS011;71057;51.436;6.768;2024-03-06T03:42:51;30.17;;;16.63;;
81648;SDS011;71057;51.436;6.768;2024-03-06T03:45:17;26.15;;;14.57;;
81648;SDS011;71057;51.436;6.768;2024-03-06T03:47:42;26.77;;;15.85;;
81648;SDS011;71057;51.436;6.768;2024-03-06T03:50:08;33.10;;;17.15;;
81648;SDS011;71057;51.436;6.768;2024-03-06T03:52:34;26.85;;;15.45;;
81648;SDS011;71057;51.436;6.768;2024-03-06T03:54:59;28.23;;;16.70;;
81648;SDS011;71057;51.436;6.768;2024-03-06T03:57:24;29.65;;;16.15;;
81648;SDS011;71057;51.436;6.768;2024-03-06T03:59:50;31.90;;;15.88;;
81648;SDS011;71057;51.436;6.768;2024-03-06T04:02:16;28.42;;;15.73;;
81648;SDS011;71057;51.436;6.768;2024-03-06T04:04:42;31.33;;;17.77;;
81648;SDS011;71057;51.436;6.768;2024-03-06T04:07:07;32.60;;;16.58;;
81648;SDS011;71057;51.436;6.768;2024-03-06T04:09:32;30.77;;;15.52;;
81648;SDS011;71057;51.436;6.768;2024-03-06T04:12:01;27.10;;;15.55;;
81648;SDS011;71057;51.436;6.768;2024-03-06T04:14:27;31.75;;;16.50;;
81648;SDS011;71057;51.436;6.768;2024-03-06T04:16:53;28.95;;;15.43;;
81648;SDS011;71057;51.436;6.768;2024-03-06T04:19:18;33.22;;;17.00;;
81648;SDS011;71057;51.436;6.768;2024-03-06T04:21:43;33.63;;;17.53;;
81648;SDS011;71057;51.436;6.768;2024-03-06T04:24:09;28.88;;;15.38;;
81648;SDS011;71057;51.436;6.768;2024-03-06T04:26:34;28.80;;;17.20;;
81648;SDS011;71057;51.436;6.768;2024-03-06T04:29:00;36.78;;;19.33;;
81648;SDS011;71057;51.436;6.768;2024-03-06T04:31:25;42.95;;;20.85;;
81648;SDS011;71057;51.436;6.768;2024-03-06T04:33:51;38.72;;;19.00;;
81648;SDS011;71057;51.436;6.768;2024-03-06T04:36:16;39.38;;;18.88;;
81648;SDS011;71057;51.436;6.768;2024-03-06T04:38:42;38.30;;;21.35;;
81648;SDS011;71057;51.436;6.768;2024-03-06T04:41:07;33.08;;;17.20;;
81648;SDS011;71057;51.436;6.768;2024-03-06T04:43:33;36.97;;;18.08;;
81648;SDS011;71057;51.436;6.768;2024-03-06T04:45:59;31.83;;;17.27;;
81648;SDS011;71057;51.436;6.768;2024-03-06T04:48:24;47.45;;;21.45;;
81648;SDS011;71057;51.436;6.768;2024-03-06T04:50:50;43.47;;;22.17;;
81648;SDS011;71057;51.436;6.768;2024-03-06T04:53:15;36.97;;;19.42;;
81648;SDS011;71057;51.436;6.768;2024-03-06T04:55:41;40.05;;;21.30;;
81648;SDS011;71057;51.436;6.768;2024-03-06T04:58:06;43.57;;;19.60;;
81648;SDS011;71057;51.436;6.768;2024-03-06T05:00:32;41.85;;;21.45;;
81648;SDS011;71057;51.436;6.768;2024-03-06T05:02:57;43.42;;;21.45;;
81648;SDS011;71057;51.436;6.768;2024-03-06T05:05:23;46.10;;;21.58;;
81648;SDS011;71057;51.436;6.768;2024-03-06T05:07:48;44.17;;;22.23;;
81648;SDS011;71057;51.436;6.768;2024-03-06T05:10:14;37.15;;;18.80;;
81648;SDS011;71057;51.436;6.768;2024-03-06T05:12:41;33.03;;;17.67;;
81648;SDS011;71057;51.436;6.768;2024-03-06T05:15:06;36.85;;;18.20;;
81648;SDS011;71057;51.436;6.768;2024-03-06T05:17:33;44.70;;;19.98;;
81648;SDS011;71057;51.436;6.768;2024-03-06T05:19:58;39.70;;;19.25;;
81648;SDS011;71057;51.436;6.768;2024-03-06T05:22:24;46.08;;;20.15;;
81648;SDS011;71057;51.436;6.768;2024-03-06T05:24:49;35.03;;;18.03;;
81648;SDS011;71057;51.436;6.768;2024-03-06T05:27:14;31.00;;;16.37;;
81648;SDS011;71057;51.436;6.768;2024-03-06T05:29:42;30.27;;;16.65;;
81648;SDS011;71057;51.436;6.768;2024-03-06T05:32:08;30.98;;;17.17;;
81648;SDS011;71057;51.436;6.768;2024-03-06T05:34:34;35.63;;;17.15;;
81648;SDS011;71057;51.436;6.768;2024-03-06T05:37:02;37.20;;;19.92;;
81648;SDS011;71057;51.436;6.768;2024-03-06T05:39:30;32.92;;;17.92;;
81648;SDS011;71057;51.436;6.768;2024-03-06T05:42:00;36.33;;;19.48;;
81648;SDS011;71057;51.436;6.768;2024-03-06T05:44:29;32.55;;;17.73;;
81648;SDS011;71057;51.436;6.768;2024-03-06T05:46:55;35.55;;;18.10;;
81648;SDS011;71057;51.436;6.768;2024-03-06T05:49:21;40.30;;;18.95;;
81648;SDS011;71057;51.436;6.768;2024-03-06T05:51:47;37.43;;;19.20;;
81648;SDS011;71057;51.436;6.768;2024-03-06T05:54:12;38.80;;;19.23;;
81648;SDS011;71057;51.436;6.768;2024-03-06T05:56:37;37.60;;;19.20;;
81648;SDS011;71057;51.436;6.768;2024-03-06T05:59:04;38.17;;;20.77;;
81648;SDS011;71057;51.436;6.768;2024-03-06T06:01:29;37.67;;;19.02;;
81648;SDS011;71057;51.436;6.768;2024-03-06T06:03:55;37.25;;;18.83;;
81648;SDS011;71057;51.436;6.768;2024-03-06T06:06:20;37.33;;;17.67;;
81648;SDS011;71057;51.436;6.768;2024-03-06T06:08:46;46.33;;;21.93;;
81648;SDS011;71057;51.436;6.768;2024-03-06T06:11:11;43.38;;;19.88;;
81648;SDS011;71057;51.436;6.768;2024-03-06T06:13:37;47.97;;;22.30;;
81648;SDS011;71057;51.436;6.768;2024-03-06T06:16:04;41.53;;;20.83;;
81648;SDS011;71057;51.436;6.768;2024-03-06T06:18:30;38.47;;;19.98;;
81648;SDS011;71057;51.436;6.768;2024-03-06T06:20:57;47.47;;;22.90;;
81648;SDS011;71057;51.436;6.768;2024-03-06T06:23:25;39.67;;;21.30;;
81648;SDS011;71057;51.436;6.768;2024-03-06T06:25:51;47.45;;;22.02;;
81648;SDS011;71057;51.436;6.768;2024-03-06T06:28:16;40.17;;;18.90;;
81648;SDS011;71057;51.436;6.768;2024-03-06T06:30:42;37.85;;;19.55;;
81648;SDS011;71057;51.436;6.768;2024-03-06T06:33:07;39.47;;;19.77;;
81648;SDS011;71057;51.436;6.768;2024-03-06T06:35:33;36.28;;;18.52;;
81648;SDS011;71057;51.436;6.768;2024-03-06T06:37:59;40.65;;;20.67;;
81648;SDS011;71057;51.436;6.768;2024-03-06T06:40:25;42.70;;;19.52;;
81648;SDS011;71057;51.436;6.768;2024-03-06T06:42:50;39.20;;;19.90;;
81648;SDS011;71057;51.436;6.768;2024-03-06T06:45:16;38.95;;;20.92;;
81648;SDS011;71057;51.436;6.768;2024-03-06T06:47:42;41.15;;;18.50;;
81648;SDS011;71057;51.436;6.768;2024-03-06T06:50:08;44.90;;;21.25;;
81648;SDS011;71057;51.436;6.768;2024-03-06T06:52:34;40.80;;;20.38;;
81648;SDS011;71057;51.436;6.768;2024-03-06T06:55:00;47.40;;;22.67;;
81648;SDS011;71057;51.436;6.768;2024-03-06T06:57:25;43.53;;;19.80;;
81648;SDS011;71057;51.436;6.768;2024-03-06T06:59:51;44.33;;;22.95;;
81648;SDS011;71057;51.436;6.768;2024-03-06T07:02:16;39.47;;;20.70;;
81648;SDS011;71057;51.436;6.768;2024-03-06T07:04:42;43.70;;;22.25;;
81648;SDS011;71057;51.436;6.768;2024-03-06T07:07:07;39.80;;;20.40;;
81648;SDS011;71057;51.436;6.768;2024-03-06T07:09:32;39.30;;;19.37;;
81648;SDS011;71057;51.436;6.768;2024-03-06T07:11:58;39.80;;;20.40;;
81648;SDS011;71057;51.436;6.768;2024-03-06T07:14:24;42.95;;;22.13;;
81648;SDS011;71057;51.436;6.768;2024-03-06T07:16:49;34.10;;;18.07;;
81648;SDS011;71057;51.436;6.768;2024-03-06T07:19:15;43.43;;;21.53;;
81648;SDS011;71057;51.436;6.768;2024-03-06T07:21:40;42.80;;;19.75;;
81648;SDS011;71057;51.436;6.768;2024-03-06T07:24:05;42.47;;;20.30;;
81648;SDS011;71057;51.436;6.768;2024-03-06T07:26:34;48.60;;;21.73;;
81648;SDS011;71057;51.436;6.768;2024-03-06T07:29:00;43.60;;;22.98;;
81648;SDS011;71057;51.436;6.768;2024-03-06T07:31:25;43.70;;;20.92;;
81648;SDS011;71057;51.436;6.768;2024-03-06T07:33:51;42.83;;;22.73;;
81648;SDS011;71057;51.436;6.768;2024-03-06T07:36:16;41.03;;;22.73;;
81648;SDS011;71057;51.436;6.768;2024-03-06T07:38:42;38.97;;;19.23;;
81648;SDS011;71057;51.436;6.768;2024-03-06T07:41:07;40.45;;;19.35;;
81648;SDS011;71057;51.436;6.768;2024-03-06T07:43:33;41.85;;;19.10;;
81648;SDS011;71057;51.436;6.768;2024-03-06T07:45:58;41.37;;;20.53;;
81648;SDS011;71057;51.436;6.768;2024-03-06T07:48:23;44.42;;;20.80;;
81648;SDS011;71057;51.436;6.768;2024-03-06T07:50:49;38.08;;;19.58;;
81648;SDS011;71057;51.436;6.768;2024-03-06T07:53:14;39.15;;;20.27;;
81648;SDS011;71057;51.436;6.768;2024-03-06T07:55:41;37.20;;;18.63;;
81648;SDS011;71057;51.436;6.768;2024-03-06T07:58:06;46.25;;;22.00;;
81648;SDS011;71057;51.436;6.768;2024-03-06T08:00:33;40.40;;;20.80;;
81648;SDS011;71057;51.436;6.768;2024-03-06T08:02:58;37.88;;;19.98;;
81648;SDS011;71057;51.436;6.768;2024-03-06T08:05:25;39.50;;;20.58;;
81648;SDS011;71057;51.436;6.768;2024-03-06T08:07:51;37.42;;;19.88;;
81648;SDS011;71057;51.436;6.768;2024-03-06T08:10:16;42.50;;;22.17;;
81648;SDS011;71057;51.436;6.768;2024-03-06T08:12:43;38.90;;;19.83;;
81648;SDS011;71057;51.436;6.768;2024-03-06T08:15:10;35.40;;;18.05;;
81648;SDS011;71057;51.436;6.768;2024-03-06T08:17:38;36.25;;;20.50;;
81648;SDS011;71057;51.436;6.768;2024-03-06T08:20:06;36.90;;;18.52;;
81648;SDS011;71057;51.436;6.768;2024-03-06T08:22:42;40.42;;;20.25;;
81648;SDS011;71057;51.436;6.768;2024-03-06T08:25:08;42.45;;;21.58;;
81648;SDS011;71057;51.436;6.768;2024-03-06T08:27:35;38.63;;;21.20;;
81648;SDS011;71057;51.436;6.768;2024-03-06T08:30:02;33.90;;;17.85;;
81648;SDS011;71057;51.436;6.768;2024-03-06T08:32:31;45.28;;;22.15;;
81648;SDS011;71057;51.436;6.768;2024-03-06T08:35:00;39.75;;;20.73;;
81648;SDS011;71057;51.436;6.768;2024-03-06T08:37:37;39.25;;;21.02;;
81648;SDS011;71057;51.436;6.768;2024-03-06T08:40:04;40.15;;;19.35;;
81648;SDS011;71057;51.436;6.768;2024-03-06T08:42:30;41.25;;;20.95;;
81648;SDS011;71057;51.436;6.768;2024-03-06T08:44:55;37.50;;;18.75;;
81648;SDS011;71057;51.436;6.768;2024-03-06T08:47:21;36.20;;;20.20;;
81648;SDS011;71057;51.436;6.768;2024-03-06T08:49:47;43.60;;;21.70;;
81648;SDS011;71057;51.436;6.768;2024-03-06T08:52:13;41.97;;;19.67;;
81648;SDS011;71057;51.436;6.768;2024-03-06T08:54:39;42.53;;;21.58;;
81648;SDS011;71057;51.436;6.768;2024-03-06T08:57:06;39.40;;;20.83;;
81648;SDS011;71057;51.436;6.768;2024-03-06T08:59:31;40.88;;;19.38;;
81648;SDS011;71057;51.436;6.768;2024-03-06T09:01:57;35.30;;;19.90;;
81648;SDS011;71057;51.436;6.768;2024-03-06T09:04:22;41.30;;;21.35;;
81648;SDS011;71057;51.436;6.768;2024-03-06T09:06:48;41.65;;;20.50;;
81648;SDS011;71057;51.436;6.768;2024-03-06T09:09:16;40.10;;;20.98;;
81648;SDS011;71057;51.436;6.768;2024-03-06T09:11:41;39.67;;;19.13;;
81648;SDS011;71057;51.436;6.768;2024-03-06T09:14:07;40.28;;;20.33;;
81648;SDS011;71057;51.436;6.768;2024-03-06T09:16:34;42.60;;;20.83;;
81648;SDS011;71057;51.436;6.768;2024-03-06T09:18:59;38.90;;;19.92;;
81648;SDS011;71057;51.436;6.768;2024-03-06T09:21:25;37.70;;;19.70;;
81648;SDS011;71057;51.436;6.768;2024-03-06T09:23:50;36.53;;;20.10;;
81648;SDS011;71057;51.436;6.768;2024-03-06T09:26:16;35.85;;;18.67;;
81648;SDS011;71057;51.436;6.768;2024-03-06T09:28:42;37.13;;;21.63;;
81648;SDS011;71057;51.436;6.768;2024-03-06T09:31:07;35.58;;;17.95;;
81648;SDS011;71057;51.436;6.768;2024-03-06T09:33:32;33.63;;;17.50;;
81648;SDS011;71057;51.436;6.768;2024-03-06T09:35:58;35.75;;;19.05;;
81648;SDS011;71057;51.436;6.768;2024-03-06T09:38:24;34.00;;;19.52;;
81648;SDS011;71057;51.436;6.768;2024-03-06T09:40:49;35.83;;;18.20;;
81648;SDS011;71057;51.436;6.768;2024-03-06T09:43:16;37.53;;;19.25;;
81648;SDS011;71057;51.436;6.768;2024-03-06T09:45:42;35.55;;;18.38;;
81648;SDS011;71057;51.436;6.768;2024-03-06T09:48:13;33.20;;;18.98;;
81648;SDS011;71057;51.436;6.768;2024-03-06T09:50:38;36.20;;;18.75;;
81648;SDS011;71057;51.436;6.768;2024-03-06T09:53:10;34.05;;;20.65;;
81648;SDS011;71057;51.436;6.768;2024-03-06T09:55:39;38.00;;;20.65;;
81648;SDS011;71057;51.436;6.768;2024-03-06T09:58:05;38.35;;;18.77;;
81648;SDS011;71057;51.436;6.768;2024-03-06T10:00:32;31.33;;;17.42;;
81648;SDS011;71057;51.436;6.768;2024-03-06T10:02:57;37.40;;;19.40;;
81648;SDS011;71057;51.436;6.768;2024-03-06T10:05:26;32.72;;;18.95;;
81648;SDS011;71057;51.436;6.768;2024-03-06T10:07:52;29.58;;;18.40;;
81648;SDS011;71057;51.436;6.768;2024-03-06T10:10:18;35.50;;;19.80;;
81648;SDS011;71057;51.436;6.768;2024-03-06T10:12:45;34.83;;;20.35;;
81648;SDS011;71057;51.436;6.768;2024-03-06T10:15:10;32.90;;;17.70;;
81648;SDS011;71057;51.436;6.768;2024-03-06T10:17:37;33.25;;;18.63;;
81648;SDS011;71057;51.436;6.768;2024-03-06T10:20:16;32.10;;;18.30;;
81648;SDS011;71057;51.436;6.768;2024-03-06T10:22:42;31.75;;;17.50;;
81648;SDS011;71057;51.436;6.768;2024-03-06T10:25:08;31.08;;;19.23;;
81648;SDS011;71057;51.436;6.768;2024-03-06T10:27:34;31.10;;;17.42;;
81648;SDS011;71057;51.436;6.768;2024-03-06T10:30:00;30.65;;;17.92;;
81648;SDS011;71057;51.436;6.768;2024-03-06T10:32:29;29.20;;;18.00;;
81648;SDS011;71057;51.436;6.768;2024-03-06T10:34:55;32.38;;;17.58;;
81648;SDS011;71057;51.436;6.768;2024-03-06T10:37:20;29.38;;;16.42;;
81648;SDS011;71057;51.436;6.768;2024-03-06T10:39:47;33.47;;;17.85;;
81648;SDS011;71057;51.436;6.768;2024-03-06T10:42:19;28.17;;;16.73;;
81648;SDS011;71057;51.436;6.768;2024-03-06T10:44:55;28.92;;;17.70;;
81648;SDS011;71057;51.436;6.768;2024-03-06T10:47:24;30.45;;;16.38;;
81648;SDS011;71057;51.436;6.768;2024-03-06T10:49:51;27.98;;;17.40;;
81648;SDS011;71057;51.436;6.768;2024-03-06T10:52:19;29.08;;;16.23;;
81648;SDS011;71057;51.436;6.768;2024-03-06T10:54:44;30.63;;;17.13;;
81648;SDS011;71057;51.436;6.768;2024-03-06T10:57:11;28.95;;;18.00;;
81648;SDS011;71057;51.436;6.768;2024-03-06T10:59:38;29.85;;;19.08;;
81648;SDS011;71057;51.436;6.768;2024-03-06T11:02:06;28.42;;;17.92;;
81648;SDS011;71057;51.436;6.768;2024-03-06T11:04:33;31.42;;;17.48;;
81648;SDS011;71057;51.436;6.768;2024-03-06T11:06:59;36.90;;;18.92;;
81648;SDS011;71057;51.436;6.768;2024-03-06T11:09:26;34.05;;;19.27;;
81648;SDS011;71057;51.436;6.768;2024-03-06T11:11:52;32.55;;;19.40;;
81648;SDS011;71057;51.436;6.768;2024-03-06T11:14:21;36.03;;;21.25;;
81648;SDS011;71057;51.436;6.768;2024-03-06T11:17:01;33.60;;;19.13;;
81648;SDS011;71057;51.436;6.768;2024-03-06T11:19:29;32.78;;;18.67;;
81648;SDS011;71057;51.436;6.768;2024-03-06T11:21:55;34.35;;;17.88;;
81648;SDS011;71057;51.436;6.768;2024-03-06T11:24:23;31.88;;;17.92;;
81648;SDS011;71057;51.436;6.768;2024-03-06T11:26:59;33.60;;;18.95;;
81648;SDS011;71057;51.436;6.768;2024-03-06T11:29:29;30.08;;;17.85;;
81648;SDS011;71057;51.436;6.768;2024-03-06T11:32:14;33.20;;;18.33;;
81648;SDS011;71057;51.436;6.768;2024-03-06T11:34:42;30.40;;;19.55;;
81648;SDS011;71057;51.436;6.768;2024-03-06T11:37:07;33.72;;;19.08;;
81648;SDS011;71057;51.436;6.768;2024-03-06T11:39:37;31.95;;;19.52;;
81648;SDS011;71057;51.436;6.768;2024-03-06T11:42:04;31.30;;;18.58;;
81648;SDS011;71057;51.436;6.768;2024-03-06T11:44:33;30.50;;;18.83;;
81648;SDS011;71057;51.436;6.768;2024-03-06T11:46:59;30.98;;;17.33;;
81648;SDS011;71057;51.436;6.768;2024-03-06T11:49:27;34.17;;;19.73;;
81648;SDS011;71057;51.436;6.768;2024-03-06T11:51:54;30.63;;;18.80;;
81648;SDS011;71057;51.436;6.768;2024-03-06T11:54:22;31.02;;;16.65;;
81648;SDS011;71057;51.436;6.768;2024-03-06T11:56:55;29.35;;;17.27;;
81648;SDS011;71057;51.436;6.768;2024-03-06T11:59:25;30.42;;;18.42;;
81648;SDS011;71057;51.436;6.768;2024-03-06T12:01:51;30.23;;;19.00;;
81648;SDS011;71057;51.436;6.768;2024-03-06T12:04:18;32.20;;;19.45;;
81648;SDS011;71057;51.436;6.768;2024-03-06T12:06:44;34.55;;;18.58;;
81648;SDS011;71057;51.436;6.768;2024-03-06T12:09:09;28.80;;;17.30;;
81648;SDS011;71057;51.436;6.768;2024-03-06T12:11:36;30.58;;;18.83;;
81648;SDS011;71057;51.436;6.768;2024-03-06T12:14:02;27.50;;;17.80;;
81648;SDS011;71057;51.436;6.768;2024-03-06T12:16:27;28.83;;;16.73;;
81648;SDS011;71057;51.436;6.768;2024-03-06T12:18:56;32.47;;;18.50;;
81648;SDS011;71057;51.436;6.768;2024-03-06T12:21:27;29.13;;;18.08;;
81648;SDS011;71057;51.436;6.768;2024-03-06T12:24:01;29.35;;;18.25;;
81648;SDS011;71057;51.436;6.768;2024-03-06T12:26:28;28.95;;;17.85;;
81648;SDS011;71057;51.436;6.768;2024-03-06T12:28:53;27.80;;;16.55;;
81648;SDS011;71057;51.436;6.768;2024-03-06T12:31:29;28.63;;;18.02;;
81648;SDS011;71057;51.436;6.768;2024-03-06T12:33:58;25.75;;;16.50;;
81648;SDS011;71057;51.436;6.768;2024-03-06T12:36:27;26.45;;;16.35;;
81648;SDS011;71057;51.436;6.768;2024-03-06T12:38:55;20.58;;;12.07;;
81648;SDS011;71057;51.436;6.768;2024-03-06T12:41:22;21.73;;;14.13;;
81648;SDS011;71057;51.436;6.768;2024-03-06T12:43:47;21.48;;;14.35;;
81648;SDS011;71057;51.436;6.768;2024-03-06T12:46:12;23.08;;;14.63;;
81648;SDS011;71057;51.436;6.768;2024-03-06T12:48:38;25.30;;;15.00;;
81648;SDS011;71057;51.436;6.768;2024-03-06T12:51:03;25.00;;;14.30;;
81648;SDS011;71057;51.436;6.768;2024-03-06T12:53:31;22.52;;;15.18;;
81648;SDS011;71057;51.436;6.768;2024-03-06T12:55:59;22.52;;;14.20;;
81648;SDS011;71057;51.436;6.768;2024-03-06T12:58:25;21.35;;;13.98;;
81648;SDS011;71057;51.436;6.768;2024-03-06T13:00:50;20.17;;;12.65;;
81648;SDS011;71057;51.436;6.768;2024-03-06T13:03:17;21.40;;;12.90;;
81648;SDS011;71057;51.436;6.768;2024-03-06T13:05:42;20.48;;;12.82;;
81648;SDS011;71057;51.436;6.768;2024-03-06T13:08:07;21.63;;;12.30;;
81648;SDS011;71057;51.436;6.768;2024-03-06T13:10:33;20.50;;;13.53;;
81648;SDS011;71057;51.436;6.768;2024-03-06T13:12:58;21.50;;;13.07;;
81648;SDS011;71057;51.436;6.768;2024-03-06T13:15:23;17.67;;;10.50;;
81648;SDS011;71057;51.436;6.768;2024-03-06T13:17:48;17.47;;;10.63;;
81648;SDS011;71057;51.436;6.768;2024-03-06T13:20:14;15.00;;;9.98;;
81648;SDS011;71057;51.436;6.768;2024-03-06T13:22:39;16.85;;;10.15;;
81648;SDS011;71057;51.436;6.768;2024-03-06T13:25:05;14.73;;;8.63;;
81648;SDS011;71057;51.436;6.768;2024-03-06T13:27:31;14.65;;;9.50;;
81648;SDS011;71057;51.436;6.768;2024-03-06T13:29:56;14.52;;;8.82;;
81648;SDS011;71057;51.436;6.768;2024-03-06T13:32:21;12.83;;;8.30;;
81648;SDS011;71057;51.436;6.768;2024-03-06T13:34:47;14.52;;;9.07;;
81648;SDS011;71057;51.436;6.768;2024-03-06T13:37:13;10.93;;;7.55;;
81648;SDS011;71057;51.436;6.768;2024-03-06T13:39:39;13.00;;;7.28;;
81648;SDS011;71057;51.436;6.768;2024-03-06T13:42:04;10.83;;;6.63;;
81648;SDS011;71057;51.436;6.768;2024-03-06T13:44:31;11.07;;;7.03;;
81648;SDS011;71057;51.436;6.768;2024-03-06T13:46:56;8.95;;;6.30;;
81648;SDS011;71057;51.436;6.768;2024-03-06T13:49:37;12.30;;;7.50;;
81648;SDS011;71057;51.436;6.768;2024-03-06T13:52:04;11.05;;;7.50;;
81648;SDS011;71057;51.436;6.768;2024-03-06T13:54:31;11.98;;;8.20;;
81648;SDS011;71057;51.436;6.768;2024-03-06T13:56:57;11.98;;;7.88;;
81648;SDS011;71057;51.436;6.768;2024-03-06T13:59:32;10.13;;;7.07;;
81648;SDS011;71057;51.436;6.768;2024-03-06T14:01:58;9.00;;;5.82;;
81648;SDS011;71057;51.436;6.768;2024-03-06T14:04:24;9.63;;;6.00;;
81648;SDS011;71057;51.436;6.768;2024-03-06T14:06:50;9.95;;;6.60;;
81648;SDS011;71057;51.436;6.768;2024-03-06T14:09:16;10.40;;;6.22;;
81648;SDS011;71057;51.436;6.768;2024-03-06T14:11:41;11.15;;;7.40;;
81648;SDS011;71057;51.436;6.768;2024-03-06T14:14:07;9.88;;;6.85;;
81648;SDS011;71057;51.436;6.768;2024-03-06T14:16:33;9.82;;;6.50;;
81648;SDS011;71057;51.436;6.768;2024-03-06T14:18:59;12.35;;;7.80;;